createdAt,value
2019-02-21T00:00:53.015Z,101496.56
2019-02-21T00:03:20.759Z,101494.78
2019-02-21T00:05:47.736Z,101496.80
2019-02-21T00:08:14.813Z,101501.56
2019-02-21T00:10:41.797Z,101462.97
2019-02-21T00:13:09.575Z,101498.05
2019-02-21T00:15:36.768Z,101502.67
2019-02-21T00:18:03.575Z,101505.77
2019-02-21T00:20:30.491Z,101498.77
2019-02-21T00:22:57.361Z,101503.05
2019-02-21T00:25:24.383Z,101503.27
2019-02-21T00:27:51.724Z,101500.28
2019-02-21T00:30:18.742Z,101502.63
2019-02-21T00:32:46.397Z,101488.27
2019-02-21T00:35:13.604Z,101500.28
2019-02-21T00:37:40.510Z,101495.13
2019-02-21T00:40:07.715Z,101496.64
2019-02-21T00:42:34.967Z,101497.25
2019-02-21T00:45:02.070Z,101489.90
2019-02-21T00:47:29.054Z,101494.75
2019-02-21T00:49:56.030Z,101490.77
2019-02-21T00:52:23.842Z,101493.77
2019-02-21T00:54:51.197Z,101494.52
2019-02-21T00:57:17.864Z,101498.16
2019-02-21T00:59:45.155Z,101495.77
2019-02-21T01:02:13.564Z,101467.77
2019-02-21T01:04:41.638Z,101477.52
2019-02-21T01:07:08.709Z,101478.42
2019-02-21T01:09:36.665Z,101495.77
2019-02-21T01:12:04.248Z,101497.41
2019-02-21T01:14:31.675Z,101503.05
2019-02-21T01:16:58.532Z,101501.30
2019-02-21T01:19:25.659Z,101502.67
2019-02-21T01:21:52.873Z,101497.55
2019-02-21T01:24:20.098Z,101497.55
2019-02-21T01:26:47.426Z,101495.69
2019-02-21T01:29:14.139Z,101496.03
2019-02-21T01:31:41.830Z,101506.03
2019-02-21T01:34:08.770Z,101499.58
2019-02-21T01:36:36.763Z,101496.56
2019-02-21T01:39:05.832Z,101496.30
2019-02-21T01:41:33.248Z,101495.80
2019-02-21T01:44:00.874Z,101502.17
2019-02-21T01:46:28.529Z,101488.79
2019-02-21T01:48:56.541Z,101489.32
2019-02-21T01:51:23.567Z,101493.56
2019-02-21T01:53:50.753Z,101499.67
2019-02-21T01:56:17.645Z,101491.81
2019-02-21T01:58:45.296Z,101491.09
2019-02-21T02:01:26.150Z,101489.84
2019-02-21T02:04:05.289Z,101493.25
2019-02-21T02:06:33.771Z,101491.47
2019-02-21T02:09:00.534Z,101489.05
2019-02-21T02:11:27.744Z,101493.70
2019-02-21T02:13:55.150Z,101492.11
2019-02-21T02:16:21.849Z,101490.56
2019-02-21T02:18:48.512Z,101489.58
2019-02-21T02:21:15.644Z,101490.83
2019-02-21T02:23:42.333Z,101486.20
2019-02-21T02:26:09.630Z,101496.21
2019-02-21T02:28:37.689Z,101491.81
2019-02-21T02:31:04.874Z,101492.31
2019-02-21T02:33:31.546Z,101497.55
2019-02-21T02:35:59.258Z,101497.81
2019-02-21T02:38:26.418Z,101495.57
2019-02-21T02:40:53.338Z,101496.67
2019-02-21T02:43:21.327Z,101497.61
2019-02-21T02:45:48.585Z,101499.06
2019-02-21T02:48:15.258Z,101489.95
2019-02-21T02:50:41.949Z,101502.92
2019-02-21T02:53:09.402Z,101496.82
2019-02-21T02:55:36.651Z,101498.80
2019-02-21T02:58:06.429Z,101500.05
2019-02-21T03:00:32.503Z,101499.33
2019-02-21T03:02:59.745Z,101498.30
2019-02-21T03:05:26.637Z,101506.19
2019-02-21T03:07:53.321Z,101495.19
2019-02-21T03:10:21.319Z,101499.30
2019-02-21T03:12:48.259Z,101497.05
2019-02-21T03:15:15.276Z,101495.05
2019-02-21T03:17:41.985Z,101495.42
2019-02-21T03:20:08.774Z,101498.30
2019-02-21T03:22:36.541Z,101498.05
2019-02-21T03:25:05.040Z,101489.17
2019-02-21T03:27:31.749Z,101497.81
2019-02-21T03:29:59.219Z,101495.54
2019-02-21T03:32:26.302Z,101496.94
2019-02-21T03:34:53.464Z,101497.28
2019-02-21T03:37:20.548Z,101495.42
2019-02-21T03:39:48.122Z,101493.77
2019-02-21T03:42:14.803Z,101488.50
2019-02-21T03:44:42.318Z,101488.39
2019-02-21T03:47:09.299Z,101492.63
2019-02-21T03:49:35.958Z,101491.53
2019-02-21T03:52:02.640Z,101500.66
2019-02-21T03:54:30.825Z,101500.66
2019-02-21T03:56:57.500Z,101496.27
2019-02-21T03:59:24.820Z,101505.89
2019-02-21T04:02:04.540Z,101500.51
2019-02-21T04:04:22.068Z,101495.36
2019-02-21T04:06:49.336Z,101498.35
2019-02-21T04:09:16.662Z,101499.23
2019-02-21T04:11:44.437Z,101498.09
2019-02-21T04:14:11.224Z,101494.60
2019-02-21T04:16:38.322Z,101489.72
2019-02-21T04:19:05.089Z,101496.19
2019-02-21T04:21:31.750Z,101488.20
2019-02-21T04:23:58.976Z,101488.81
2019-02-21T04:26:26.101Z,101493.42
2019-02-21T04:28:53.699Z,101486.42
2019-02-21T04:31:20.823Z,101489.19
2019-02-21T04:33:47.491Z,101478.20
2019-02-21T04:36:14.407Z,101477.94
2019-02-21T04:38:41.073Z,101469.15
2019-02-21T04:41:08.592Z,101471.27
2019-02-21T04:43:35.739Z,101461.66
2019-02-21T04:46:03.094Z,101463.39
2019-02-21T04:48:30.659Z,101467.41
2019-02-21T04:50:58.428Z,101468.88
2019-02-21T04:53:25.481Z,101468.01
2019-02-21T04:55:52.685Z,101465.89
2019-02-21T04:58:20.051Z,101469.10
2019-02-21T05:00:47.134Z,101469.70
2019-02-21T05:03:13.903Z,101475.36
2019-02-21T05:05:41.130Z,101467.36
2019-02-21T05:08:07.803Z,101474.37
2019-02-21T05:10:35.090Z,101477.84
2019-02-21T05:13:02.779Z,101468.34
2019-02-21T05:15:30.034Z,101472.09
2019-02-21T05:17:56.700Z,101469.05
2019-02-21T05:20:23.977Z,101475.03
2019-02-21T05:22:51.377Z,101472.91
2019-02-21T05:25:18.562Z,101470.67
2019-02-21T05:27:53.877Z,101472.80
2019-02-21T05:30:23.142Z,101468.30
2019-02-21T05:33:04.565Z,101469.28
2019-02-21T05:35:39.571Z,101466.78
2019-02-21T05:38:20.323Z,101472.03
2019-02-21T05:40:55.274Z,101470.30
2019-02-21T05:43:31.159Z,101468.67
2019-02-21T05:46:07.166Z,101472.30
2019-02-21T05:48:53.934Z,101464.22
2019-02-21T05:51:31.890Z,101462.20
2019-02-21T05:54:21.023Z,101465.69
2019-02-21T05:57:19.746Z,101467.42
2019-02-21T05:59:52.851Z,101467.20
2019-02-21T06:02:53.328Z,101478.56
2019-02-21T06:05:42.718Z,101483.44
2019-02-21T06:08:35.173Z,101480.68
2019-02-21T06:11:25.050Z,101472.80
2019-02-21T06:14:07.706Z,101475.83
2019-02-21T06:17:07.110Z,101471.81
2019-02-21T06:19:59.588Z,101468.84
2019-02-21T06:22:51.138Z,101469.92
2019-02-21T06:25:29.952Z,101473.83
2019-02-21T06:28:05.510Z,101474.42
2019-02-21T06:30:43.412Z,101471.81
2019-02-21T06:33:11.378Z,101473.56
2019-02-21T06:35:38.345Z,101474.44
2019-02-21T06:38:05.470Z,101478.83
2019-02-21T06:40:32.836Z,101479.31
2019-02-21T06:42:59.618Z,101470.30
2019-02-21T06:45:26.287Z,101473.06
2019-02-21T06:47:53.486Z,101478.29
2019-02-21T06:50:26.958Z,101486.66
2019-02-21T06:52:51.374Z,101490.67
2019-02-21T06:55:20.584Z,101491.55
2019-02-21T06:57:47.602Z,101491.31
2019-02-21T07:00:15.148Z,101497.07
2019-02-21T07:02:42.991Z,101497.56
2019-02-21T07:05:10.347Z,101503.70
2019-02-21T07:07:37.007Z,101497.07
2019-02-21T07:10:04.950Z,101502.30
2019-02-21T07:12:32.834Z,101502.80
2019-02-21T07:15:00.461Z,101503.27
2019-02-21T07:17:27.558Z,101503.05
2019-02-21T07:19:54.807Z,101510.05
2019-02-21T07:22:22.648Z,101508.16
2019-02-21T07:24:54.160Z,101514.56
2019-02-21T07:27:21.166Z,101518.36
2019-02-21T07:29:48.227Z,101525.48
2019-02-21T07:32:15.255Z,101526.78
2019-02-21T07:34:42.249Z,101522.50
2019-02-21T07:37:18.207Z,101521.48
2019-02-21T07:39:39.586Z,101514.24
2019-02-21T07:42:06.626Z,101516.63
2019-02-21T07:44:33.902Z,101519.09
2019-02-21T07:47:01.203Z,101514.62
2019-02-21T07:49:27.974Z,101519.61
2019-02-21T07:51:55.429Z,101531.36
2019-02-21T07:54:22.095Z,101541.56
2019-02-21T07:56:49.629Z,101544.82
2019-02-21T07:59:16.779Z,101544.27
2019-02-21T08:01:43.812Z,101543.52
2019-02-21T08:04:10.588Z,101546.39
2019-02-21T08:06:37.876Z,101545.75
2019-02-21T08:09:07.077Z,101554.39
2019-02-21T08:11:34.581Z,101564.27
2019-02-21T08:14:01.283Z,101576.66
2019-02-21T08:16:28.330Z,101572.75
2019-02-21T08:18:55.009Z,101579.25
2019-02-21T08:21:22.301Z,101579.27
2019-02-21T08:23:51.012Z,101581.27
2019-02-21T08:26:20.082Z,101580.88
2019-02-21T08:28:47.560Z,101519.22
2019-02-21T08:31:14.799Z,101577.35
2019-02-21T08:34:06.951Z,101575.73
2019-02-21T08:36:33.962Z,101582.23
2019-02-21T08:39:01.273Z,101586.58
2019-02-21T08:41:30.766Z,101587.83
2019-02-21T08:43:57.574Z,101594.30
2019-02-21T08:46:25.118Z,101591.47
2019-02-21T08:48:52.334Z,101585.34
2019-02-21T08:51:19.595Z,101589.52
2019-02-21T08:53:46.936Z,101593.28
2019-02-21T08:56:13.789Z,101585.94
2019-02-21T08:58:40.467Z,101595.51
2019-02-21T09:01:08.405Z,101584.44
2019-02-21T09:03:36.088Z,101583.73
2019-02-21T09:06:03.362Z,101587.16
2019-02-21T09:08:34.991Z,101586.35
2019-02-21T09:11:00.405Z,101587.98
2019-02-21T09:13:27.350Z,101596.00
2019-02-21T09:15:56.040Z,101588.63
2019-02-21T09:18:23.364Z,101577.38
2019-02-21T09:20:50.311Z,101559.02
2019-02-21T09:23:18.429Z,101572.33
2019-02-21T09:25:46.027Z,101581.72
2019-02-21T09:28:15.717Z,101575.70
2019-02-21T09:30:42.679Z,101561.52
2019-02-21T09:33:17.324Z,101564.29
2019-02-21T09:35:38.641Z,101565.69
2019-02-21T09:38:05.879Z,101562.22
2019-02-21T09:40:33.990Z,101558.73
2019-02-21T09:43:00.921Z,101563.52
2019-02-21T09:45:27.720Z,101553.67
2019-02-21T09:47:55.305Z,101550.59
2019-02-21T09:50:22.074Z,101555.52
2019-02-21T09:52:49.001Z,101572.84
2019-02-21T09:55:16.902Z,101574.66
2019-02-21T09:57:44.389Z,101572.39
2019-02-21T10:00:14.577Z,101573.91
2019-02-21T10:02:42.163Z,101562.91
2019-02-21T10:05:09.590Z,101569.05
2019-02-21T10:07:37.330Z,101567.42
2019-02-21T10:10:08.111Z,101567.04
2019-02-21T10:12:35.259Z,101567.68
2019-02-21T10:15:02.112Z,101568.47
2019-02-21T10:17:31.114Z,101567.47
2019-02-21T10:19:57.801Z,101560.70
2019-02-21T10:22:26.144Z,101560.95
2019-02-21T10:24:53.189Z,101570.47
2019-02-21T10:27:20.381Z,101569.74
2019-02-21T10:29:48.326Z,101571.00
2019-02-21T10:32:15.139Z,101572.73
2019-02-21T10:34:43.282Z,101581.00
2019-02-21T10:37:10.801Z,101583.13
2019-02-21T10:39:37.741Z,101586.48
2019-02-21T10:42:04.866Z,101581.12
2019-02-21T10:44:32.536Z,101573.11
2019-02-21T10:46:59.735Z,101576.50
2019-02-21T10:49:27.486Z,101582.41
2019-02-21T10:51:54.598Z,101578.63
2019-02-21T10:54:21.979Z,101577.53
2019-02-21T10:56:49.777Z,101561.73
2019-02-21T10:59:16.841Z,101574.28
2019-02-21T11:01:43.750Z,101589.55
2019-02-21T11:04:11.488Z,101578.77
2019-02-21T11:06:38.172Z,101592.80
2019-02-21T11:09:07.281Z,101590.05
2019-02-21T11:11:35.095Z,101595.83
2019-02-21T11:14:02.321Z,101589.54
2019-02-21T11:16:29.219Z,101597.30
2019-02-21T11:18:56.477Z,101590.92
2019-02-21T11:21:23.750Z,101590.39
2019-02-21T11:23:50.935Z,101589.75
2019-02-21T11:26:18.460Z,101591.98
2019-02-21T11:28:47.368Z,101589.08
2019-02-21T11:31:15.763Z,101580.80
2019-02-21T11:33:43.069Z,101594.83
2019-02-21T11:36:10.527Z,101585.19
2019-02-21T11:38:37.441Z,101598.32
2019-02-21T11:41:04.724Z,101598.30
2019-02-21T11:43:31.397Z,101597.19
2019-02-21T11:45:58.226Z,101582.37
2019-02-21T11:48:25.143Z,101587.22
2019-02-21T11:50:52.176Z,101588.58
2019-02-21T11:53:20.461Z,101589.88
2019-02-21T11:55:47.407Z,101583.18
2019-02-21T11:58:14.337Z,101591.94
2019-02-21T12:00:42.482Z,101586.95
2019-02-21T12:03:09.392Z,101588.06
2019-02-21T12:05:36.707Z,101583.79
2019-02-21T12:08:04.956Z,101589.45
2019-02-21T12:10:31.740Z,101582.88
2019-02-21T12:12:58.932Z,101582.92
2019-02-21T12:15:25.611Z,101596.06
2019-02-21T12:17:52.888Z,101593.06
2019-02-21T12:20:19.897Z,101594.68
2019-02-21T12:22:47.470Z,101588.80
2019-02-21T12:25:16.330Z,101595.84
2019-02-21T12:27:43.012Z,101596.09
2019-02-21T12:30:12.269Z,101605.86
2019-02-21T12:32:39.411Z,101601.11
2019-02-21T12:35:06.286Z,101615.51
2019-02-21T12:37:33.498Z,101607.61
2019-02-21T12:40:00.284Z,101605.34
2019-02-21T12:42:27.214Z,101607.11
2019-02-21T12:44:54.538Z,101602.09
2019-02-21T12:47:21.786Z,101599.60
2019-02-21T12:49:48.525Z,101597.84
2019-02-21T12:52:15.289Z,101601.98
2019-02-21T12:54:42.616Z,101594.81
2019-02-21T12:57:09.866Z,101603.08
2019-02-21T12:59:37.329Z,101602.84
2019-02-21T13:02:05.150Z,101600.83
2019-02-21T13:04:33.435Z,101596.34
2019-02-21T13:07:01.235Z,101594.84
2019-02-21T13:09:28.190Z,101598.59
2019-02-21T13:11:55.117Z,101600.59
2019-02-21T13:14:22.815Z,101590.69
2019-02-21T13:16:49.511Z,101590.45
2019-02-21T13:19:16.839Z,101583.68
2019-02-21T13:21:44.599Z,101585.30
2019-02-21T13:24:11.977Z,101581.06
2019-02-21T13:26:39.146Z,101585.06
2019-02-21T13:29:06.633Z,101587.81
2019-02-21T13:31:33.942Z,101588.16
2019-02-21T13:34:01.766Z,101591.31
2019-02-21T13:36:28.847Z,101586.19
2019-02-21T13:38:56.841Z,101598.32
2019-02-21T13:41:23.939Z,101598.33
2019-02-21T13:43:50.620Z,101596.22
2019-02-21T13:46:17.870Z,101590.05
2019-02-21T13:48:45.334Z,101595.56
2019-02-21T13:51:12.389Z,101603.34
2019-02-21T13:53:39.416Z,101597.33
2019-02-21T13:56:06.477Z,101603.70
2019-02-21T13:58:33.279Z,101603.08
2019-02-21T14:00:59.949Z,101614.11
2019-02-21T14:03:26.623Z,101617.73
2019-02-21T14:06:03.234Z,101616.13
2019-02-21T14:08:22.795Z,101609.76
2019-02-21T14:10:50.199Z,101610.34
2019-02-21T14:13:17.357Z,101614.50
2019-02-21T14:15:44.132Z,101616.37
2019-02-21T14:18:11.382Z,101614.22
2019-02-21T14:20:45.256Z,101615.84
2019-02-21T14:23:07.286Z,101615.33
2019-02-21T14:25:40.838Z,101612.57
2019-02-21T14:28:04.194Z,101614.56
2019-02-21T14:30:31.394Z,101613.05
2019-02-21T14:32:58.819Z,101615.02
2019-02-21T14:35:26.292Z,101608.80
2019-02-21T14:37:53.489Z,101604.29
2019-02-21T14:40:20.273Z,101605.51
2019-02-21T14:42:47.653Z,101606.38
2019-02-21T14:45:16.166Z,101605.28
2019-02-21T14:47:43.382Z,101606.77
2019-02-21T14:50:10.617Z,101606.27
2019-02-21T14:52:37.934Z,101606.77
2019-02-21T14:55:06.264Z,101601.75
2019-02-21T14:57:41.008Z,101599.25
2019-02-21T15:00:05.813Z,101606.27
2019-02-21T15:02:33.309Z,101609.98
2019-02-21T15:05:00.379Z,101612.38
2019-02-21T15:07:27.720Z,101618.25
2019-02-21T15:09:55.268Z,101623.81
2019-02-21T15:12:22.138Z,101626.37
2019-02-21T15:14:48.790Z,101632.10
2019-02-21T15:17:15.441Z,101628.06
2019-02-21T15:19:43.170Z,101630.08
2019-02-21T15:22:09.946Z,101631.97
2019-02-21T15:24:36.711Z,101630.53
2019-02-21T15:27:08.475Z,101635.55
2019-02-21T15:29:35.153Z,101630.80
2019-02-21T15:32:10.476Z,101631.03
2019-02-21T15:34:31.582Z,101633.04
2019-02-21T15:36:59.068Z,101626.02
2019-02-21T15:39:25.766Z,101631.59
2019-02-21T15:41:53.463Z,101634.55
2019-02-21T15:44:21.525Z,101634.78
2019-02-21T15:46:48.902Z,101635.16
2019-02-21T15:49:15.757Z,101640.02
2019-02-21T15:51:42.721Z,101631.78
2019-02-21T15:54:09.397Z,101634.02
2019-02-21T15:56:36.077Z,101640.51
2019-02-21T15:59:02.849Z,101641.49
2019-02-21T16:01:30.572Z,101642.78
2019-02-21T16:03:57.278Z,101652.30
2019-02-21T16:06:24.842Z,101651.58
2019-02-21T16:08:52.015Z,101656.97
2019-02-21T16:11:18.810Z,101659.88
2019-02-21T16:13:46.241Z,101669.02
2019-02-21T16:16:14.379Z,101667.73
2019-02-21T16:18:41.706Z,101675.89
2019-02-21T16:21:09.076Z,101675.95
2019-02-21T16:23:35.757Z,101674.95
2019-02-21T16:26:02.752Z,101675.62
2019-02-21T16:28:30.758Z,101680.09
2019-02-21T16:30:57.965Z,101671.75
2019-02-21T16:33:25.446Z,101676.34
2019-02-21T16:35:52.780Z,101674.06
2019-02-21T16:38:20.031Z,101678.69
2019-02-21T16:40:46.704Z,101677.77
2019-02-21T16:43:13.975Z,101673.47
2019-02-21T16:45:46.184Z,101673.97
2019-02-21T16:48:10.733Z,101674.95
2019-02-21T16:50:38.086Z,101674.41
2019-02-21T16:53:04.738Z,101675.06
2019-02-21T16:55:31.821Z,101677.41
2019-02-21T16:57:59.506Z,101692.25
2019-02-21T17:00:38.915Z,101686.75
2019-02-21T17:02:56.045Z,101695.61
2019-02-21T17:05:23.104Z,101698.98
2019-02-21T17:07:50.944Z,101701.33
2019-02-21T17:10:17.715Z,101703.52
2019-02-21T17:12:44.989Z,101699.38
2019-02-21T17:15:12.531Z,101702.58
2019-02-21T17:17:39.924Z,101700.06
2019-02-21T17:20:08.957Z,101709.20
2019-02-21T17:22:36.323Z,101713.56
2019-02-21T17:25:04.522Z,101716.92
2019-02-21T17:27:31.651Z,101713.55
2019-02-21T17:29:59.412Z,101720.93
2019-02-21T17:32:26.435Z,101722.67
2019-02-21T17:34:53.121Z,101725.83
2019-02-21T17:37:24.978Z,101730.28
2019-02-21T17:39:49.298Z,101732.23
2019-02-21T17:42:15.978Z,101708.88
2019-02-21T17:44:43.819Z,101728.00
2019-02-21T17:47:10.776Z,101714.50
2019-02-21T17:49:37.726Z,101729.23
2019-02-21T17:52:05.039Z,101727.72
2019-02-21T17:54:31.705Z,101730.00
2019-02-21T17:56:59.515Z,101731.17
2019-02-21T17:59:27.663Z,101724.65
2019-02-21T18:01:55.011Z,101732.90
2019-02-21T18:04:22.030Z,101746.87
2019-02-21T18:06:50.035Z,101739.63
2019-02-21T18:09:17.165Z,101740.70
2019-02-21T18:11:44.174Z,101751.48
2019-02-21T18:14:11.532Z,101752.20
2019-02-21T18:16:38.717Z,101754.70
2019-02-21T18:19:05.754Z,101750.39
2019-02-21T18:21:32.837Z,101755.02
2019-02-21T18:23:59.619Z,101759.15
2019-02-21T18:26:26.886Z,101757.31
2019-02-21T18:28:54.285Z,101768.67
2019-02-21T18:31:22.849Z,101769.14
2019-02-21T18:33:51.010Z,101769.42
2019-02-21T18:36:18.127Z,101768.46
2019-02-21T18:38:45.501Z,101775.80
2019-02-21T18:41:12.454Z,101782.52
2019-02-21T18:43:39.234Z,101779.31
2019-02-21T18:46:06.052Z,101785.77
2019-02-21T18:48:32.807Z,101781.58
2019-02-21T18:51:00.389Z,101783.02
2019-02-21T18:53:28.318Z,101787.33
2019-02-21T18:55:55.351Z,101794.23
2019-02-21T18:58:22.834Z,101786.83
2019-02-21T19:00:50.690Z,101782.27
2019-02-21T19:03:18.154Z,101783.95
2019-02-21T19:05:45.605Z,101785.95
2019-02-21T19:08:12.955Z,101796.95
2019-02-21T19:10:40.709Z,101797.80
2019-02-21T19:13:08.114Z,101795.77
2019-02-21T19:15:35.382Z,101804.36
2019-02-21T19:18:03.705Z,101803.98
2019-02-21T19:20:31.378Z,101801.92
2019-02-21T19:22:59.682Z,101813.55
2019-02-21T19:25:27.080Z,101814.94
2019-02-21T19:27:54.804Z,101813.97
2019-02-21T19:30:27.621Z,101809.81
2019-02-21T19:32:54.282Z,101828.27
2019-02-21T19:35:22.973Z,101831.56
2019-02-21T19:37:49.991Z,101833.52
2019-02-21T19:40:16.770Z,101835.11
2019-02-21T19:42:43.754Z,101845.57
2019-02-21T19:45:11.353Z,101845.53
2019-02-21T19:47:38.129Z,101850.90
2019-02-21T19:50:05.998Z,101852.36
2019-02-21T19:52:33.521Z,101859.48
2019-02-21T19:55:00.328Z,101858.11
2019-02-21T19:57:27.938Z,101860.84
2019-02-21T19:59:55.294Z,101856.11
2019-02-21T20:02:23.571Z,101857.23
2019-02-21T20:04:53.438Z,101855.91
2019-02-21T20:07:20.694Z,101863.11
2019-02-21T20:09:48.618Z,101863.56
2019-02-21T20:12:16.325Z,101861.48
2019-02-21T20:14:43.098Z,101861.86
2019-02-21T20:17:10.195Z,101868.64
2019-02-21T20:19:37.435Z,101876.27
2019-02-21T20:22:05.061Z,101884.50
2019-02-21T20:24:31.729Z,101886.30
2019-02-21T20:27:00.342Z,101894.87
2019-02-21T20:29:28.049Z,101896.45
2019-02-21T20:31:55.150Z,101895.20
2019-02-21T20:34:22.441Z,101898.95
2019-02-21T20:36:51.301Z,101895.00
2019-02-21T20:39:19.003Z,101893.45
2019-02-21T20:41:45.686Z,101901.16
2019-02-21T20:44:12.449Z,101918.14
2019-02-21T20:46:39.413Z,101907.28
2019-02-21T20:49:06.316Z,101912.72
2019-02-21T20:51:34.705Z,101919.72
2019-02-21T20:54:02.440Z,101924.17
2019-02-21T20:56:30.189Z,101929.62
2019-02-21T20:58:57.879Z,101935.11
2019-02-21T21:01:25.492Z,101939.55
2019-02-21T21:03:52.763Z,101936.10
2019-02-21T21:06:20.516Z,101929.32
2019-02-21T21:08:47.322Z,101938.30
2019-02-21T21:11:14.919Z,101931.31
2019-02-21T21:13:44.192Z,101936.22
2019-02-21T21:16:12.177Z,101943.51
2019-02-21T21:18:39.773Z,101942.77
2019-02-21T21:21:06.605Z,101950.42
2019-02-21T21:23:33.248Z,101943.95
2019-02-21T21:26:00.704Z,101947.70
2019-02-21T21:28:28.353Z,101957.18
2019-02-21T21:30:56.004Z,101955.63
2019-02-21T21:33:24.621Z,101963.70
2019-02-21T21:35:52.246Z,101962.08
2019-02-21T21:38:24.153Z,101959.52
2019-02-21T21:40:48.101Z,101967.75
2019-02-21T21:43:15.106Z,101969.07
2019-02-21T21:45:41.768Z,101975.67
2019-02-21T21:48:08.821Z,101980.81
2019-02-21T21:50:36.939Z,101978.31
2019-02-21T21:53:05.757Z,101975.52
2019-02-21T21:55:32.519Z,101978.02
2019-02-21T21:57:59.421Z,101982.30
2019-02-21T22:00:27.114Z,101991.30
2019-02-21T22:02:54.400Z,101998.36
2019-02-21T22:05:21.426Z,101996.98
2019-02-21T22:07:49.645Z,102005.03
2019-02-21T22:10:16.808Z,101997.55
2019-02-21T22:12:45.026Z,102002.91
2019-02-21T22:15:13.154Z,102007.53
2019-02-21T22:17:42.218Z,102002.17
2019-02-21T22:20:09.683Z,102000.79
2019-02-21T22:22:37.445Z,102002.38
2019-02-21T22:25:08.973Z,102002.91
2019-02-21T22:27:36.154Z,102003.28
2019-02-21T22:30:05.226Z,102017.02
2019-02-21T22:32:33.171Z,102016.48
2019-02-21T22:35:00.317Z,102018.77
2019-02-21T22:37:27.065Z,102026.63
2019-02-21T22:39:54.293Z,102022.52
2019-02-21T22:42:21.977Z,102027.34
2019-02-21T22:44:49.479Z,102035.06
2019-02-21T22:47:16.367Z,102042.25
2019-02-21T22:49:43.529Z,102041.23
2019-02-21T22:52:12.482Z,102043.23
2019-02-21T22:54:48.081Z,102038.23
2019-02-21T22:57:18.452Z,102039.92
2019-02-21T22:59:45.586Z,102043.09
2019-02-21T23:02:13.202Z,102047.21
2019-02-21T23:05:05.222Z,102053.08
2019-02-21T23:08:08.337Z,102047.95
2019-02-21T23:10:35.998Z,102055.34
2019-02-21T23:13:03.514Z,102054.02
2019-02-21T23:15:30.298Z,102054.02
2019-02-21T23:17:56.969Z,102059.25
2019-02-21T23:20:23.767Z,102062.77
2019-02-21T23:22:51.184Z,102064.18
2019-02-21T23:25:18.375Z,102069.55
2019-02-21T23:27:46.470Z,102077.37
2019-02-21T23:30:13.989Z,102074.54
2019-02-21T23:32:41.698Z,102081.16
2019-02-21T23:35:14.749Z,102083.34
2019-02-21T23:37:42.136Z,102091.89
2019-02-21T23:40:09.667Z,102085.64
2019-02-21T23:42:36.412Z,102094.02
2019-02-21T23:45:05.316Z,102099.08
2019-02-21T23:47:32.570Z,102108.02
2019-02-21T23:49:59.258Z,102109.18
2019-02-21T23:52:27.327Z,102111.98
2019-02-21T23:54:57.931Z,102108.38
2019-02-21T23:57:25.321Z,102118.95
2019-02-21T23:59:53.007Z,102124.97
